Time;durP1;ratioP1;P1;durP2;ratioP2;P2;SDS_P1;SDS_P2;PMS_P1;PMS_P2;Temp;Humidity;BMP_temperature;BMP_pressure;BME280_temperature;BME280_humidity;BME280_pressure;Samples;Min_cycle;Max_cycle;Signal;HPM_P1;HPM_P2
2023/07/08 00:02:12;;;;;;;;;6.75;6.00;;;;;29.67;34.29;100502.91;5029075;28;46090;-78
2023/07/08 00:04:39;;;;;;;;;7.25;7.00;;;;;29.66;33.88;100509.34;5027658;28;45791;-78
2023/07/08 00:07:05;;;;;;;;;8.25;7.25;;;;;29.63;34.16;100509.00;5029295;28;45728;-78
2023/07/08 00:09:31;;;;;;;;;6.25;6.00;;;;;29.65;34.19;100528.50;5028912;28;45679;-78
2023/07/08 00:11:59;;;;;;;;;7.00;6.00;;;;;29.61;34.01;100528.16;5028782;28;45931;-78
2023/07/08 00:14:25;;;;;;;;;8.00;8.00;;;;;29.60;34.12;100537.31;5021601;28;47155;-78
2023/07/08 00:16:51;;;;;;;;;7.00;6.25;;;;;29.56;34.18;100528.84;5024978;28;45780;-77
2023/07/08 00:19:19;;;;;;;;;7.50;7.00;;;;;29.54;34.37;100532.84;5029469;28;47443;-77
2023/07/08 00:21:45;;;;;;;;;8.00;8.00;;;;;29.51;34.22;100523.34;5019004;28;46320;-78
2023/07/08 00:24:10;;;;;;;;;7.75;7.00;;;;;29.49;34.27;100527.31;5017633;28;45702;-76
2023/07/08 00:26:36;;;;;;;;;8.75;7.75;;;;;29.51;34.20;100536.03;5029265;28;46097;-77
2023/07/08 00:29:02;;;;;;;;;8.00;7.00;;;;;29.49;34.23;100535.41;5028750;28;46936;-77
2023/07/08 00:31:31;;;;;;;;;7.75;7.75;;;;;29.45;34.25;100528.84;5022269;28;46100;-77
2023/07/08 00:33:57;;;;;;;;;7.00;6.00;;;;;29.43;34.32;100539.88;5026998;28;45709;-76
2023/07/08 00:36:24;;;;;;;;;7.00;7.00;;;;;29.42;34.83;100550.94;5027661;28;45900;-77
2023/07/08 00:38:50;;;;;;;;;9.00;8.00;;;;;29.39;34.56;100551.38;5024940;28;46168;-77
2023/07/08 00:41:28;;;;;;;;;8.75;8.00;;;;;29.36;34.39;100557.28;5024642;28;47324;-76
2023/07/08 00:43:57;;;;;;;;;10.00;8.00;;;;;29.36;34.48;100558.09;5027482;28;46965;-77
2023/07/08 00:46:31;;;;;;;;;7.25;7.25;;;;;29.35;34.55;100561.84;5028617;28;45893;-77
2023/07/08 00:49:18;;;;;;;;;6.75;6.25;;;;;29.32;34.23;100556.06;5027676;28;46979;-77
2023/07/08 00:51:43;;;;;;;;;9.00;7.50;;;;;29.29;34.76;100541.13;5029423;28;46440;-77
2023/07/08 00:54:14;;;;;;;;;10.25;9.25;;;;;29.27;34.74;100545.13;5025259;28;45988;-76
2023/07/08 00:56:46;;;;;;;;;7.00;5.75;;;;;29.26;34.78;100546.19;5028379;28;45760;-77
2023/07/08 00:59:20;;;;;;;;;10.00;8.75;;;;;29.23;34.77;100538.53;5020738;28;46575;-77
2023/07/08 01:01:47;;;;;;;;;8.50;8.50;;;;;29.21;35.10;100547.69;5028112;28;46039;-77
2023/07/08 01:04:19;;;;;;;;;9.00;8.00;;;;;29.20;34.84;100554.13;5027341;28;45919;-76
2023/07/08 01:06:52;;;;;;;;;8.25;6.25;;;;;29.18;35.01;100545.47;5038053;28;45661;-77
2023/07/08 01:09:18;;;;;;;;;11.25;9.25;;;;;29.16;35.09;100552.97;5028168;28;45800;-77
2023/07/08 01:11:44;;;;;;;;;12.50;11.00;;;;;29.15;34.94;100558.63;5026204;28;45800;-77
2023/07/08 01:14:15;;;;;;;;;22.00;18.75;;;;;29.11;35.21;100566.34;5026872;28;46989;-77
2023/07/08 01:16:40;;;;;;;;;19.50;19.00;;;;;29.13;35.50;100568.81;5029173;28;45788;-77
2023/07/08 01:19:14;;;;;;;;;22.25;14.25;;;;;29.11;34.97;100560.09;5025948;28;46152;-78
2023/07/08 01:22:01;;;;;;;;;13.00;11.50;;;;;29.10;34.96;100553.88;5017949;28;45757;-77
2023/07/08 01:24:29;;;;;;;;;12.50;11.25;;;;;29.06;35.63;100551.88;5024081;28;45880;-77
2023/07/08 01:26:55;;;;;;;;;14.25;12.50;;;;;29.04;35.24;100549.41;5029387;28;45707;-77
2023/07/08 01:29:21;;;;;;;;;10.75;10.50;;;;;29.03;35.77;100546.97;5029561;28;46666;-77
2023/07/08 01:31:48;;;;;;;;;11.00;9.50;;;;;29.00;35.39;100545.53;5028342;28;46722;-77
2023/07/08 01:34:16;;;;;;;;;11.25;9.75;;;;;28.97;35.16;100554.09;5028588;28;45777;-78
2023/07/08 01:36:47;;;;;;;;;9.25;8.75;;;;;28.95;35.75;100549.97;5028332;28;45989;-77
2023/07/08 01:39:25;;;;;;;;;8.00;8.00;;;;;28.95;35.37;100555.38;5028818;28;45840;-77
2023/07/08 01:41:53;;;;;;;;;8.00;7.25;;;;;28.91;35.17;100555.03;5022962;28;46405;-78
2023/07/08 01:44:23;;;;;;;;;10.00;9.00;;;;;28.82;35.70;100580.69;5027168;28;45872;-76
2023/07/08 01:46:50;;;;;;;;;9.50;9.00;;;;;28.85;35.61;100649.53;5028937;28;45890;-76
2023/07/08 01:49:16;;;;;;;;;11.50;8.00;;;;;28.79;35.67;100687.16;5021602;28;45686;-76
2023/07/08 01:51:42;;;;;;;;;9.50;8.75;;;;;28.75;35.26;100685.16;5027720;28;45864;-76
2023/07/08 01:54:07;;;;;;;;;8.25;8.25;;;;;28.68;35.78;100668.19;5023345;28;45742;-75
2023/07/08 01:56:33;;;;;;;;;8.50;8.00;;;;;28.61;35.61;100675.53;5028287;28;45663;-75
2023/07/08 01:58:58;;;;;;;;;9.75;8.00;;;;;28.55;36.03;100671.03;5031704;28;46531;-76
2023/07/08 02:01:23;;;;;;;;;11.25;9.00;;;;;28.50;35.82;100685.22;5027976;28;46019;-76
2023/07/08 02:03:49;;;;;;;;;7.00;7.00;;;;;28.44;35.85;100696.06;5028855;28;45706;-75
2023/07/08 02:06:14;;;;;;;;;9.00;8.00;;;;;28.39;36.78;100686.75;5028037;28;45841;-75
2023/07/08 02:08:40;;;;;;;;;9.75;9.00;;;;;28.33;37.04;100694.94;5027079;28;46373;-77
2023/07/08 02:11:05;;;;;;;;;6.50;6.50;;;;;28.24;36.95;100699.75;5028768;28;46061;-76
2023/07/08 02:13:31;;;;;;;;;6.75;6.25;;;;;28.15;37.17;100701.09;5027146;28;46124;-76
2023/07/08 02:15:56;;;;;;;;;7.25;6.00;;;;;28.02;37.47;100687.72;5029683;28;45661;-75
2023/07/08 02:18:24;;;;;;;;;6.25;6.00;;;;;27.86;38.46;100681.00;5027250;28;45687;-76
2023/07/08 02:20:49;;;;;;;;;6.00;5.25;;;;;27.71;38.74;100687.78;5030622;28;46458;-76
2023/07/08 02:23:15;;;;;;;;;3.75;3.75;;;;;27.56;39.60;100674.63;5030182;28;45955;-75
2023/07/08 02:25:41;;;;;;;;;5.00;4.25;;;;;27.41;39.64;100674.91;5032325;28;45762;-75
2023/07/08 02:28:06;;;;;;;;;5.50;4.50;;;;;27.25;40.86;100664.69;5032034;28;46094;-75
2023/07/08 02:30:31;;;;;;;;;3.75;3.25;;;;;27.11;40.91;100663.09;5030154;28;45811;-76
2023/07/08 02:32:57;;;;;;;;;4.25;4.25;;;;;26.90;41.99;100653.47;5031662;28;46035;-76
2023/07/08 02:35:28;;;;;;;;;4.00;3.50;;;;;26.70;41.97;100645.47;5032481;28;46017;-76
2023/07/08 02:37:55;;;;;;;;;4.00;4.00;;;;;26.55;42.42;100644.09;5030509;28;45833;-77
2023/07/08 02:40:21;;;;;;;;;4.00;4.00;;;;;26.38;43.04;100651.78;5028573;28;46324;-76
2023/07/08 02:42:47;;;;;;;;;3.00;3.00;;;;;26.25;43.57;100633.84;5030492;28;45787;-77
2023/07/08 02:45:13;;;;;;;;;4.00;4.00;;;;;26.15;43.73;100643.31;5029938;28;45913;-77
2023/07/08 02:47:39;;;;;;;;;3.75;3.25;;;;;26.04;44.47;100634.06;5030508;28;46129;-77
2023/07/08 02:50:05;;;;;;;;;5.00;4.00;;;;;25.96;44.21;100626.22;5020605;28;45679;-77
2023/07/08 02:52:30;;;;;;;;;3.50;3.00;;;;;25.91;44.23;100632.19;5031783;28;45654;-76
2023/07/08 02:54:56;;;;;;;;;3.75;2.75;;;;;25.82;44.61;100624.56;5032080;28;45962;-76
2023/07/08 02:57:21;;;;;;;;;3.25;3.00;;;;;25.75;44.88;100619.19;5031006;28;46968;-75
2023/07/08 02:59:46;;;;;;;;;4.00;3.00;;;;;25.69;44.63;100613.88;5031493;28;46142;-76
2023/07/08 03:02:12;;;;;;;;;2.25;2.25;;;;;25.61;44.69;100614.88;5031658;28;45719;-77
2023/07/08 03:04:39;;;;;;;;;2.00;2.00;;;;;25.55;44.80;100614.84;5032087;28;45683;-76
2023/07/08 03:07:05;;;;;;;;;3.00;2.00;;;;;25.56;44.97;100624.59;5024009;28;46517;-76
2023/07/08 03:09:32;;;;;;;;;3.75;3.00;;;;;25.54;44.48;100610.50;5030546;28;46884;-76
2023/07/08 03:11:57;;;;;;;;;2.00;2.00;;;;;25.50;44.89;100607.41;5029604;28;45822;-76
2023/07/08 03:14:23;;;;;;;;;1.25;1.25;;;;;25.45;44.71;100593.78;5031107;28;45891;-76
2023/07/08 03:16:48;;;;;;;;;2.25;2.25;;;;;25.40;44.89;100590.91;5017145;28;47450;-76
2023/07/08 03:19:15;;;;;;;;;1.25;1.25;;;;;25.40;44.67;100596.28;5028354;28;46211;-76
2023/07/08 03:21:41;;;;;;;;;3.00;2.00;;;;;25.39;44.92;100598.13;5029243;28;45692;-77
2023/07/08 03:24:10;;;;;;;;;1.75;1.75;;;;;25.37;44.74;100596.69;5026437;28;45698;-76
2023/07/08 03:26:36;;;;;;;;;3.00;1.75;;;;;25.37;44.81;100605.53;5029999;28;46790;-77
2023/07/08 03:29:02;;;;;;;;;1.75;1.75;;;;;25.38;44.58;100604.53;5024403;28;45831;-77
2023/07/08 03:31:28;;;;;;;;;1.50;1.25;;;;;25.36;44.60;100590.50;5028339;28;46115;-78
2023/07/08 03:33:53;;;;;;;;;2.00;2.00;;;;;25.41;44.45;100593.41;5029699;28;45534;-77
2023/07/08 03:36:22;;;;;;;;;2.00;2.00;;;;;25.43;44.46;100585.94;5030588;28;45967;-77
2023/07/08 03:38:50;;;;;;;;;2.00;2.00;;;;;25.46;44.87;100574.81;5026860;28;46131;-77
2023/07/08 03:41:15;;;;;;;;;2.00;1.00;;;;;25.50;44.95;100569.84;5026220;28;46211;-78
2023/07/08 03:43:40;;;;;;;;;2.75;2.00;;;;;25.51;44.96;100568.81;5026066;28;46098;-77
2023/07/08 03:46:11;;;;;;;;;3.00;2.00;;;;;25.50;45.06;100561.81;5028404;28;47749;-77
2023/07/08 03:48:37;;;;;;;;;1.00;1.00;;;;;25.45;45.03;100542.81;5030220;28;46336;-77
2023/07/08 03:51:02;;;;;;;;;1.00;1.00;;;;;25.49;44.63;100542.19;5028663;28;45672;-77
2023/07/08 03:53:28;;;;;;;;;2.00;1.00;;;;;25.48;44.72;100535.16;5029968;28;45732;-77
2023/07/08 03:55:53;;;;;;;;;2.25;2.00;;;;;25.49;45.11;100528.78;5030940;28;46391;-77
2023/07/08 03:58:18;;;;;;;;;1.75;1.75;;;;;25.48;44.95;100527.13;5030808;28;46103;-77
2023/07/08 04:00:44;;;;;;;;;2.00;2.00;;;;;25.45;44.88;100518.66;5027756;28;45770;-78
2023/07/08 04:03:11;;;;;;;;;2.00;2.00;;;;;25.43;44.64;100516.19;5030496;28;46303;-77
2023/07/08 04:05:37;;;;;;;;;1.00;1.00;;;;;25.41;44.44;100512.06;5028606;28;45937;-77
2023/07/08 04:08:02;;;;;;;;;1.00;1.00;;;;;25.42;44.53;100505.69;5042503;28;46722;-77
2023/07/08 04:10:28;;;;;;;;;2.00;2.00;;;;;25.45;44.23;100502.56;5026635;28;46485;-78
2023/07/08 04:12:53;;;;;;;;;2.75;2.00;;;;;25.46;44.71;100501.53;5028962;28;45879;-76
2023/07/08 04:15:19;;;;;;;;;1.50;1.50;;;;;25.46;44.50;100501.53;5030145;28;46613;-77
2023/07/08 04:17:49;;;;;;;;;2.00;2.00;;;;;25.48;44.41;100505.66;5029852;28;46288;-77
2023/07/08 04:20:18;;;;;;;;;2.75;2.50;;;;;25.52;44.64;100503.41;5029993;28;46117;-77
2023/07/08 04:22:43;;;;;;;;;1.00;1.00;;;;;25.52;44.09;100506.09;5028734;28;45737;-77
2023/07/08 04:25:12;;;;;;;;;1.25;1.00;;;;;25.52;44.55;100516.00;5030133;28;46328;-77
2023/07/08 04:27:38;;;;;;;;;2.00;1.75;;;;;25.50;44.47;100519.69;5031305;28;45625;-77
2023/07/08 04:30:04;;;;;;;;;3.00;3.00;;;;;25.47;44.62;100521.97;5023421;28;45791;-77
2023/07/08 04:32:30;;;;;;;;;2.00;2.00;;;;;25.49;44.67;100525.25;5030213;28;45720;-77
2023/07/08 04:34:55;;;;;;;;;2.00;1.25;;;;;25.50;44.29;100538.47;5030440;28;46794;-77
2023/07/08 04:37:21;;;;;;;;;3.00;2.25;;;;;25.49;43.85;100544.03;5029810;28;45837;-76
2023/07/08 04:39:46;;;;;;;;;2.00;2.00;;;;;25.50;44.08;100551.06;5027276;28;45843;-76
2023/07/08 04:42:15;;;;;;;;;2.75;2.00;;;;;25.53;44.44;100555.22;5028786;28;45836;-77
2023/07/08 04:44:41;;;;;;;;;2.00;2.00;;;;;25.54;44.09;100548.78;5027960;28;46108;-76
2023/07/08 04:47:08;;;;;;;;;2.25;1.25;;;;;25.56;44.14;100557.50;5029710;28;46525;-76
2023/07/08 04:49:34;;;;;;;;;1.25;1.25;;;;;25.55;44.63;100556.63;5029062;28;45705;-77
2023/07/08 04:52:01;;;;;;;;;2.25;2.00;;;;;25.55;44.09;100556.63;5030241;28;45777;-77
2023/07/08 04:54:28;;;;;;;;;3.00;2.50;;;;;25.53;43.85;100569.47;5027695;28;46601;-78
2023/07/08 04:56:53;;;;;;;;;2.00;2.00;;;;;25.54;44.14;100571.06;5029361;28;46433;-77
2023/07/08 04:59:22;;;;;;;;;3.00;3.00;;;;;25.54;44.17;100575.63;5028438;28;45713;-78
2023/07/08 05:01:48;;;;;;;;;2.00;1.25;;;;;25.56;44.83;100585.16;5030206;28;45789;-77
2023/07/08 05:04:16;;;;;;;;;2.00;2.00;;;;;25.54;44.83;100586.34;5028991;28;46335;-78
2023/07/08 05:06:42;;;;;;;;;2.00;2.00;;;;;25.55;45.61;100590.69;5029642;28;48733;-77
2023/07/08 05:09:08;;;;;;;;;3.00;3.00;;;;;25.53;44.74;100590.91;5026246;28;46125;-78
2023/07/08 05:11:34;;;;;;;;;3.00;3.00;;;;;25.52;45.26;100593.81;5029819;28;45626;-78
2023/07/08 05:14:01;;;;;;;;;2.00;2.00;;;;;25.51;45.40;100590.28;5026564;28;46287;-78
2023/07/08 05:16:27;;;;;;;;;1.50;1.50;;;;;25.50;45.66;100583.28;5022962;28;46109;-76
2023/07/08 05:18:52;;;;;;;;;2.00;2.00;;;;;25.50;45.62;100575.22;5029795;28;45694;-76
2023/07/08 05:21:20;;;;;;;;;3.00;3.00;;;;;25.53;45.54;100582.03;5030132;28;45786;-76
2023/07/08 05:23:49;;;;;;;;;1.00;1.00;;;;;25.53;45.39;100592.78;5027274;28;45796;-77
2023/07/08 05:26:15;;;;;;;;;2.25;2.00;;;;;25.55;45.67;100609.47;5027460;28;46147;-77
2023/07/08 05:28:41;;;;;;;;;3.00;2.25;;;;;25.56;45.12;100630.78;5029982;28;46132;-77
2023/07/08 05:31:07;;;;;;;;;3.75;2.00;;;;;25.58;45.29;100626.03;5028655;28;45817;-77
2023/07/08 05:33:33;;;;;;;;;1.50;1.50;;;;;25.60;45.58;100637.38;5024887;28;48791;-77
2023/07/08 05:35:59;;;;;;;;;2.00;1.75;;;;;25.64;45.61;100632.44;5022035;28;45969;-77
2023/07/08 05:38:25;;;;;;;;;2.25;2.00;;;;;25.69;45.57;100651.44;5026966;28;46513;-76
2023/07/08 05:40:53;;;;;;;;;3.25;2.00;;;;;25.73;45.33;100644.63;5026760;28;45820;-80
2023/07/08 05:43:19;;;;;;;;;2.00;1.00;;;;;25.79;45.33;100657.22;5028679;28;45623;-76
2023/07/08 05:45:45;;;;;;;;;2.00;2.00;;;;;25.82;45.78;100659.47;5026431;28;46481;-76
2023/07/08 05:48:11;;;;;;;;;2.00;2.00;;;;;25.87;45.39;100657.00;5026455;28;45883;-75
2023/07/08 05:50:36;;;;;;;;;3.75;3.00;;;;;25.92;45.39;100666.06;5029683;28;45698;-75
2023/07/08 05:53:02;;;;;;;;;2.00;2.00;;;;;25.97;44.99;100676.19;5027639;28;45996;-77
2023/07/08 05:55:27;;;;;;;;;2.00;2.00;;;;;26.01;45.26;100672.09;5023105;28;46048;-77
2023/07/08 05:57:53;;;;;;;;;3.00;3.00;;;;;26.05;45.35;100673.31;5027981;28;46171;-76
2023/07/08 06:00:18;;;;;;;;;3.00;2.00;;;;;26.11;44.92;100677.03;5029463;28;45650;-76
2023/07/08 06:02:44;;;;;;;;;2.25;2.00;;;;;26.14;44.83;100680.09;5022364;28;47383;-76
2023/07/08 06:05:09;;;;;;;;;2.00;2.00;;;;;26.16;44.96;100687.97;5025618;28;48373;-77
2023/07/08 06:07:34;;;;;;;;;1.75;1.75;;;;;26.24;44.85;100696.66;5027444;28;45735;-76
2023/07/08 06:10:00;;;;;;;;;3.00;2.50;;;;;26.27;44.38;100698.09;5027805;28;45787;-76
2023/07/08 06:12:26;;;;;;;;;2.75;2.75;;;;;26.29;44.60;100709.44;5026379;28;45763;-76
2023/07/08 06:14:51;;;;;;;;;2.00;2.00;;;;;26.27;44.85;100711.53;5027118;28;46020;-76
2023/07/08 06:17:17;;;;;;;;;2.00;2.00;;;;;26.33;44.40;100718.78;5025684;28;45606;-79
2023/07/08 06:19:43;;;;;;;;;2.25;2.00;;;;;26.34;44.32;100722.28;5027323;28;45903;-80
2023/07/08 06:22:08;;;;;;;;;2.00;2.00;;;;;26.38;44.92;100727.03;5025471;28;46370;-79
2023/07/08 06:24:34;;;;;;;;;2.75;2.25;;;;;26.40;44.64;100724.94;5028625;28;46675;-75
2023/07/08 06:27:00;;;;;;;;;2.00;2.00;;;;;26.43;44.62;100743.34;5028753;28;45662;-78
2023/07/08 06:29:26;;;;;;;;;2.00;2.00;;;;;26.45;44.89;100737.78;5029984;28;46952;-79
2023/07/08 06:31:52;;;;;;;;;2.50;2.50;;;;;26.45;44.62;100746.63;5024983;28;45869;-78
2023/07/08 06:34:19;;;;;;;;;2.75;2.00;;;;;26.48;44.54;100745.41;5028205;28;46005;-78
2023/07/08 06:36:45;;;;;;;;;2.75;1.75;;;;;26.50;44.54;100751.41;5027592;28;46812;-78
2023/07/08 06:39:11;;;;;;;;;2.00;2.00;;;;;26.51;44.40;100751.19;5029114;28;46002;-78
2023/07/08 06:41:37;;;;;;;;;2.00;2.00;;;;;26.52;44.47;100754.69;5026238;28;45925;-81
2023/07/08 06:44:04;;;;;;;;;2.25;1.00;;;;;26.54;44.40;100760.69;5026657;28;46234;-78
2023/07/08 06:46:29;;;;;;;;;2.00;2.00;;;;;26.57;44.69;100765.63;5028535;28;46409;-79
2023/07/08 06:48:55;;;;;;;;;3.75;2.25;;;;;26.57;44.42;100762.94;5026944;28;46066;-78
2023/07/08 06:51:21;;;;;;;;;3.00;3.00;;;;;26.55;44.26;100756.97;5028325;28;46252;-78
2023/07/08 06:53:46;;;;;;;;;2.50;2.00;;;;;26.57;44.66;100766.47;5024183;28;46026;-78
2023/07/08 06:56:12;;;;;;;;;2.00;2.00;;;;;26.59;44.18;100782.41;5024214;28;46052;-82
2023/07/08 06:58:37;;;;;;;;;3.00;2.00;;;;;26.60;44.52;100776.00;5028758;28;45574;-77
2023/07/08 07:01:03;;;;;;;;;2.25;2.00;;;;;26.62;44.02;100766.66;5032977;28;46379;-80
2023/07/08 07:03:28;;;;;;;;;3.00;2.00;;;;;26.62;44.03;100779.28;5030164;28;46611;-86
2023/07/08 07:05:54;;;;;;;;;3.00;2.00;;;;;26.63;44.07;100781.75;5019215;28;45599;-83
2023/07/08 07:08:19;;;;;;;;;2.25;2.00;;;;;26.65;43.80;100781.56;5030946;28;45835;-78
2023/07/08 07:10:44;;;;;;;;;2.00;2.00;;;;;26.64;44.00;100788.81;5030371;28;46084;-77
2023/07/08 07:13:10;;;;;;;;;3.00;2.00;;;;;26.65;44.22;100785.09;5027443;28;45856;-78
2023/07/08 07:15:35;;;;;;;;;2.00;2.00;;;;;26.65;43.66;100774.31;5048147;28;45784;-77
2023/07/08 07:18:01;;;;;;;;;3.25;2.00;;;;;26.70;44.17;100784.44;5028371;28;45991;-80
2023/07/08 07:20:27;;;;;;;;;4.00;2.75;;;;;26.71;43.65;100786.94;5031958;28;45756;-77
2023/07/08 07:22:53;;;;;;;;;2.00;2.00;;;;;26.73;44.07;100786.69;5030196;28;46265;-79
2023/07/08 07:25:19;;;;;;;;;2.00;1.75;;;;;26.74;43.71;100788.38;5029466;28;45769;-80
2023/07/08 07:27:44;;;;;;;;;2.00;1.50;;;;;26.78;43.71;100789.59;5031406;28;45498;-77
2023/07/08 07:30:14;;;;;;;;;2.00;2.00;;;;;26.76;42.93;100786.31;5031077;28;46704;-85
2023/07/08 07:32:40;;;;;;;;;1.00;1.00;;;;;26.80;43.65;100787.53;5030123;28;46591;-80
2023/07/08 07:35:06;;;;;;;;;3.00;2.25;;;;;26.82;43.44;100782.78;5030960;28;45755;-79
2023/07/08 07:37:32;;;;;;;;;1.00;1.00;;;;;26.85;43.43;100794.97;5032745;28;45835;-78
2023/07/08 07:39:57;;;;;;;;;2.00;2.00;;;;;26.87;43.06;100790.22;5031056;28;45767;-78
2023/07/08 07:42:23;;;;;;;;;2.00;2.00;;;;;26.91;43.13;100794.97;5032109;28;45791;-77
2023/07/08 07:44:48;;;;;;;;;3.00;3.00;;;;;26.93;43.17;100797.47;5029555;28;45815;-78
2023/07/08 07:47:16;;;;;;;;;3.00;3.00;;;;;26.94;43.12;100796.41;5031794;28;45620;-75
2023/07/08 07:49:42;;;;;;;;;3.00;3.00;;;;;26.97;43.58;100796.00;5027045;28;45925;-78
2023/07/08 07:52:10;;;;;;;;;3.00;2.00;;;;;26.98;43.27;100789.59;5027933;28;45909;-81
2023/07/08 07:54:35;;;;;;;;;3.00;3.00;;;;;27.01;43.02;100789.16;5032185;28;45952;-79
2023/07/08 07:57:01;;;;;;;;;2.75;2.75;;;;;27.03;43.31;100782.53;5029737;28;46112;-83
2023/07/08 07:59:27;;;;;;;;;2.00;2.00;;;;;27.07;43.16;100793.69;5030647;28;46732;-80
2023/07/08 08:01:52;;;;;;;;;3.00;3.00;;;;;27.10;42.90;100804.00;5031288;28;45754;-77
2023/07/08 08:04:17;;;;;;;;;3.75;2.00;;;;;27.11;42.93;100803.81;5029433;28;46333;-78
2023/07/08 08:06:43;;;;;;;;;3.00;3.00;;;;;27.14;42.98;100814.16;5034660;28;45812;-80
2023/07/08 08:09:08;;;;;;;;;3.00;3.00;;;;;27.18;42.96;100803.78;5030748;28;46273;-83
2023/07/08 08:11:34;;;;;;;;;4.50;3.00;;;;;27.21;43.44;100797.16;5031469;28;45921;-81
2023/07/08 08:14:00;;;;;;;;;4.00;4.00;;;;;27.23;43.75;100805.84;5029808;28;45904;-82
2023/07/08 08:16:25;;;;;;;;;2.50;2.50;;;;;27.24;42.98;100794.88;5029143;28;45749;-86
2023/07/08 08:18:51;;;;;;;;;4.00;3.50;;;;;27.26;43.44;100803.53;5027183;28;46585;-85
2023/07/08 08:21:16;;;;;;;;;5.75;4.00;;;;;27.29;43.31;100805.00;5031029;28;46870;-80
2023/07/08 08:23:42;;;;;;;;;5.00;4.00;;;;;27.34;43.34;100811.38;5028876;28;45823;-89
2023/07/08 08:26:08;;;;;;;;;3.50;3.50;;;;;27.37;43.00;100820.91;5028430;28;46054;-76
2023/07/08 08:28:35;;;;;;;;;3.00;3.00;;;;;27.40;42.78;100820.47;5041160;28;46503;-76
2023/07/08 08:31:00;;;;;;;;;6.25;5.00;;;;;27.45;43.44;100826.88;5038863;28;45738;-90
2023/07/08 08:33:25;;;;;;;;;3.00;3.00;;;;;27.49;43.25;100832.63;5039382;28;45728;-80
2023/07/08 08:35:51;;;;;;;;;4.00;4.00;;;;;27.52;42.65;100833.09;5038638;28;45759;-81
2023/07/08 08:38:17;;;;;;;;;4.25;4.00;;;;;27.54;43.35;100836.38;5031393;28;47799;-78
2023/07/08 08:40:43;;;;;;;;;4.00;3.00;;;;;27.58;42.61;100839.47;5032531;28;46549;-84
2023/07/08 08:43:22;;;;;;;;;4.00;4.00;;;;;27.61;42.74;100836.34;5030485;28;45718;-80
2023/07/08 08:46:00;;;;;;;;;5.00;4.00;;;;;27.65;43.14;100834.03;5033725;28;45615;-80
2023/07/08 08:48:29;;;;;;;;;5.00;5.00;;;;;27.66;42.70;100824.94;5029693;28;46061;-76
2023/07/08 08:51:15;;;;;;;;;4.50;3.75;;;;;27.68;42.92;100833.63;5027066;28;46270;-81
2023/07/08 08:53:41;;;;;;;;;4.00;3.75;;;;;27.70;42.88;100834.22;5020431;28;45679;-81
2023/07/08 08:56:21;;;;;;;;;3.00;3.00;;;;;27.68;43.30;100826.38;5029052;28;45675;-80
2023/07/08 08:59:07;;;;;;;;;4.25;4.25;;;;;27.69;42.61;100835.28;5024973;28;47061;-83
2023/07/08 09:01:32;;;;;;;;;4.50;4.50;;;;;27.72;43.23;100832.97;5030227;28;46003;-83
2023/07/08 09:04:03;;;;;;;;;4.00;4.00;;;;;27.76;42.74;100836.06;5024645;28;45692;-81
2023/07/08 09:06:33;;;;;;;;;4.50;3.75;;;;;27.77;43.02;100838.53;5031335;28;45821;-81
2023/07/08 09:09:05;;;;;;;;;4.00;4.00;;;;;27.77;43.18;100833.16;5029556;28;45932;-82
2023/07/08 09:12:00;;;;;;;;;5.50;4.00;;;;;27.76;43.26;100842.28;5031143;28;46402;-83
2023/07/08 09:14:29;;;;;;;;;4.50;4.00;;;;;27.74;42.94;100833.59;5031695;28;45729;-82
2023/07/08 09:17:16;;;;;;;;;5.00;5.00;;;;;27.78;43.44;100842.88;5030958;28;45839;-83
2023/07/08 09:19:47;;;;;;;;;5.00;5.00;;;;;27.79;42.83;100846.41;5040315;28;45732;-81
2023/07/08 09:22:20;;;;;;;;;7.00;6.25;;;;;27.81;43.37;100837.06;5031567;28;45922;-82
2023/07/08 09:24:49;;;;;;;;;2.00;2.00;;;;;27.84;43.13;100833.94;5032146;28;45686;-82
2023/07/08 09:27:15;;;;;;;;;5.50;5.00;;;;;27.89;43.09;100836.81;5032029;28;45819;-80
2023/07/08 09:29:40;;;;;;;;;7.25;6.00;;;;;27.93;42.90;100839.91;5028873;28;45578;-81
2023/07/08 09:32:16;;;;;;;;;3.50;3.50;;;;;28.00;43.10;100834.47;5031185;28;46071;-83
2023/07/08 09:34:47;;;;;;;;;6.75;5.50;;;;;28.06;42.51;100842.53;5029147;28;45821;-83
2023/07/08 09:37:33;;;;;;;;;5.25;4.00;;;;;28.18;43.21;100837.28;5036503;28;45666;-82
2023/07/08 09:40:00;;;;;;;;;8.00;6.00;;;;;28.27;42.89;100836.78;5029747;28;46133;-87
2023/07/08 09:42:34;;;;;;;;;5.50;4.75;;;;;28.35;42.46;100831.13;5031647;28;45786;-83
2023/07/08 09:45:13;;;;;;;;;4.75;4.75;;;;;28.42;42.83;100836.47;5017603;28;46122;-80
2023/07/08 09:47:40;;;;;;;;;5.50;5.50;;;;;28.50;42.57;100841.59;5009984;28;46340;-81
2023/07/08 09:50:27;;;;;;;;;4.25;4.25;;;;;28.51;42.00;100837.00;5009109;28;46414;-78
2023/07/08 09:53:04;;;;;;;;;5.00;4.50;;;;;28.48;42.06;100824.81;5008449;28;46755;-77
2023/07/08 09:55:30;;;;;;;;;5.00;4.00;;;;;28.51;42.07;100840.53;5009688;28;47511;-81
2023/07/08 09:57:57;;;;;;;;;4.75;4.00;;;;;28.53;42.11;100837.63;5007416;28;46232;-78
2023/07/08 10:00:33;;;;;;;;;4.75;4.25;;;;;28.54;41.83;100832.00;5011378;28;46216;-79
2023/07/08 10:03:06;;;;;;;;;5.75;5.50;;;;;28.55;41.60;100822.06;5007670;28;45852;-76
2023/07/08 10:05:41;;;;;;;;;5.75;5.25;;;;;28.57;41.65;100820.75;5010633;28;46251;-79
2023/07/08 10:08:22;;;;;;;;;4.25;4.00;;;;;28.56;41.46;100819.09;5006850;28;46167;-77
2023/07/08 10:11:09;;;;;;;;;6.00;5.00;;;;;28.58;41.17;100825.13;5023348;28;46465;-80
2023/07/08 10:13:40;;;;;;;;;3.75;3.75;;;;;28.58;40.94;100819.72;5012941;28;47194;-85
2023/07/08 10:16:28;;;;;;;;;7.00;6.00;;;;;28.57;41.38;100819.94;5017368;28;46517;-82
2023/07/08 10:18:54;;;;;;;;;5.00;4.25;;;;;28.57;41.70;100817.25;5033681;28;45658;-80
2023/07/08 10:21:30;;;;;;;;;5.00;4.25;;;;;28.58;41.63;100821.59;5012348;28;47014;-80
2023/07/08 10:24:19;;;;;;;;;5.50;5.00;;;;;28.61;41.01;100815.78;5009829;28;46093;-78
2023/07/08 10:26:49;;;;;;;;;5.75;5.25;;;;;28.61;41.13;100819.28;5011445;28;46226;-78
2023/07/08 10:29:26;;;;;;;;;4.00;4.00;;;;;28.66;41.40;100822.16;5008225;28;46199;-80
2023/07/08 10:32:12;;;;;;;;;5.50;4.50;;;;;28.70;41.55;100826.03;5009322;28;48503;-79
2023/07/08 10:35:01;;;;;;;;;4.50;4.50;;;;;28.75;41.06;100823.53;5006979;28;46282;-78
2023/07/08 10:37:35;;;;;;;;;4.00;3.75;;;;;28.79;40.35;100826.59;5025503;28;46392;-77
2023/07/08 10:40:16;;;;;;;;;5.00;5.00;;;;;28.80;40.73;100822.88;5013794;28;45897;-78
2023/07/08 10:43:06;;;;;;;;;6.00;4.50;;;;;28.83;40.91;100827.00;5016043;28;47867;-79
2023/07/08 10:45:45;;;;;;;;;5.25;5.00;;;;;28.86;40.94;100830.06;5034225;28;46170;-80
2023/07/08 10:48:26;;;;;;;;;2.50;2.50;;;;;28.89;40.57;100826.09;5021604;28;45916;-77
2023/07/08 10:51:01;;;;;;;;;6.75;5.25;;;;;28.90;40.36;100831.25;5033959;28;45858;-78
2023/07/08 10:53:46;;;;;;;;;5.00;5.00;;;;;28.89;40.33;100821.50;5034016;28;45791;-79
2023/07/08 10:56:31;;;;;;;;;6.00;5.50;;;;;28.92;40.44;100826.47;5034228;28;46066;-79
2023/07/08 10:59:35;;;;;;;;;4.50;4.50;;;;;28.96;40.25;100830.38;5032114;28;45801;-81
2023/07/08 11:02:13;;;;;;;;;4.50;4.50;;;;;29.01;40.75;100830.53;5011734;28;45886;-78
2023/07/08 11:05:30;;;;;;;;;5.25;5.25;;;;;29.05;40.38;100829.00;4998276;28;47981;-80
2023/07/08 11:08:04;;;;;;;;;5.75;5.25;;;;;29.08;40.86;100815.09;4998227;28;46173;-80
2023/07/08 11:10:37;;;;;;;;;5.00;5.00;;;;;29.16;40.58;100811.25;5009864;28;45801;-81
2023/07/08 11:13:12;;;;;;;;;5.00;5.00;;;;;29.16;40.50;100812.06;4993690;28;45804;-80
2023/07/08 11:15:52;;;;;;;;;7.00;6.00;;;;;29.24;40.51;100818.22;5007697;28;45865;-80
2023/07/08 11:18:25;;;;;;;;;6.75;5.75;;;;;29.29;40.16;100816.50;5013715;28;46196;-80
2023/07/08 11:21:20;;;;;;;;;6.50;6.00;;;;;29.34;40.41;100816.69;5009435;28;45883;-81
2023/07/08 11:24:19;;;;;;;;;5.00;4.00;;;;;29.42;40.43;100807.44;4996870;28;46019;-80
2023/07/08 11:26:50;;;;;;;;;5.75;5.75;;;;;29.48;40.39;100796.53;5009672;28;45738;-81
2023/07/08 11:29:22;;;;;;;;;4.75;4.75;;;;;29.53;40.12;100803.94;4991783;28;48336;-80
2023/07/08 11:31:49;;;;;;;;;5.50;5.50;;;;;29.58;40.14;100804.91;4992478;28;45804;-80
2023/07/08 11:34:17;;;;;;;;;4.75;4.75;;;;;29.61;40.04;100792.84;5009965;28;45891;-80